Banks, OR (97106)

11:58 AM PDT on September 03, 2015 (GMT -0700)
North Star Heights | | Change Station
CLOSE
Current Station
Personal Weather Station
Location: Banks, OR
Elevation: 417 ft
Nearby Weather Stations

Elev 417 ft 45.66 °N, 123.12 °W | Updated 3 seconds ago

Clear
Clear
63.5 °F
Feels Like 63.5 °F
N
0.0
Wind Variable Wind from NNW
Gusts 1.3 mph

Today
High -- | Low -- °F
--% Chance of Precip.
Yesterday
High -- | Low -- °F
Precip. -- in
6:35 AM 7:46 PM
Waning Gibbous, 68% visible
Pressure 30.02 in
Visibility 10.0 miles
Clouds Few 3700 ft
Mostly Cloudy 7500 ft
Dew Point 52 °F
Humidity 65%
Rainfall 0.00 in
Snow Depth Not available.
UV 4 out of 12
Pollen 3.00 out of 12
Air Quality Not available.
Flu Activity Not available.
METAR KHIO 031853Z VRB03KT 10SM FEW037 BKN075 19/06 A3002 RMK AO2 SLP164 T01890061
Pressure 30.02 in
Visibility 10.0 miles
Clouds Few 3700 ft
Mostly Cloudy 7500 ft
Dew Point 52 °F
Humidity 65%
Rainfall 0.00 in
Snow Depth Not available.
UV 4 out of 12
Pollen 3.00 out of 12
Air Quality Not available.
Flu Activity Not available.
METAR KHIO 031853Z VRB03KT 10SM FEW037 BKN075 19/06 A3002 RMK AO2 SLP164 T01890061

10-Day Weather Forecast

×

Almanac

Astronomy

Sep. 03, 2015 Rise Set
Actual Time
Civil Twilight
Nautical Twilight
Astronomical Twilight
Moon
Length of Visible Light
Length of Day
Tomorrow will be .
, % of the Moon is Illuminated

Today's Extremes

State Highs State Lows

Community

WunderPhotos

Upload Photos

1,852,001 photos uploaded!

WunderBlogs® & News

Nearby

Air Quality

  Air Quality AQ Index Pollutant
Not available.

Snow Depth

Station Depth Elevation

Earthquake Activity

City Distance Mag. Time & Date
Minimum magnitude displayed is 2.5.

Coastal Water Temperatures

Place Temperature

Stations

Nearby Weather Stations

Station Location Temp. Windchill Dew Point Humidity Wind Precip. Elev Updated Type